Time;durP1;ratioP1;P1;durP2;ratioP2;P2;SDS_P1;SDS_P2;PMS_P1;PMS_P2;Temp;Humidity;BMP_temperature;BMP_pressure;BME280_temperature;BME280_humidity;BME280_pressure;Samples;Min_cycle;Max_cycle;Signal;HPM_P1;HPM_P2
2021/08/15 00:02:18;;;;;;;22.03;11.07;;;24.00;99.90;;;;;;5029030;28;20476;-54
2021/08/15 00:04:44;;;;;;;14.93;10.33;;;24.00;99.90;;;;;;5030627;28;20488;-55
2021/08/15 00:07:13;;;;;;;15.40;11.40;;;24.00;99.90;;;;;;5028730;28;20526;-56
2021/08/15 00:09:40;;;;;;;20.53;12.43;;;23.90;99.90;;;;;;5031257;28;20467;-55
2021/08/15 00:12:08;;;;;;;20.90;13.07;;;23.90;99.90;;;;;;5030641;28;20464;-55
2021/08/15 00:14:36;;;;;;;18.63;10.60;;;23.80;99.90;;;;;;5029646;28;20484;-56
2021/08/15 00:17:03;;;;;;;18.00;11.30;;;23.80;99.90;;;;;;5030713;28;20518;-56
2021/08/15 00:19:31;;;;;;;20.90;11.90;;;23.70;99.90;;;;;;5031742;28;20832;-55
2021/08/15 00:21:58;;;;;;;13.00;9.53;;;23.60;99.90;;;;;;5029239;28;20464;-55
2021/08/15 00:24:26;;;;;;;19.17;10.23;;;23.60;99.90;;;;;;5031501;28;20480;-54
2021/08/15 00:26:54;;;;;;;19.57;10.90;;;23.60;99.90;;;;;;5012467;28;20515;-55
2021/08/15 00:29:21;;;;;;;13.40;10.40;;;23.50;99.90;;;;;;5024052;28;20511;-55
2021/08/15 00:31:48;;;;;;;14.60;11.33;;;23.50;99.90;;;;;;5031107;28;20501;-58
2021/08/15 00:34:15;;;;;;;14.40;10.77;;;23.40;99.90;;;;;;5031671;28;20506;-56
2021/08/15 00:36:42;;;;;;;22.70;11.67;;;23.50;99.90;;;;;;5030740;28;20962;-56
2021/08/15 00:39:09;;;;;;;19.77;11.60;;;23.50;99.90;;;;;;5028624;28;20468;-55
2021/08/15 00:41:38;;;;;;;15.40;10.93;;;23.40;99.90;;;;;;5029745;28;20469;-54
2021/08/15 00:44:06;;;;;;;18.10;10.20;;;23.50;99.90;;;;;;5028595;28;20986;-56
2021/08/15 00:46:33;;;;;;;17.00;11.10;;;23.50;99.90;;;;;;5030644;28;20492;-56
2021/08/15 00:49:00;;;;;;;14.00;10.30;;;23.60;99.90;;;;;;5030433;28;20475;-55
2021/08/15 00:51:27;;;;;;;16.33;10.77;;;23.60;99.90;;;;;;5030807;28;20468;-56
2021/08/15 00:53:56;;;;;;;18.93;11.63;;;23.50;99.90;;;;;;5011484;28;21022;-56
2021/08/15 00:56:23;;;;;;;20.20;10.87;;;23.40;99.90;;;;;;5028353;28;20881;-57
2021/08/15 00:58:52;;;;;;;17.90;11.07;;;23.30;99.90;;;;;;5031035;28;20511;-56
2021/08/15 01:01:19;;;;;;;13.43;10.30;;;23.40;99.90;;;;;;5028875;28;20468;-57
2021/08/15 01:03:46;;;;;;;12.50;9.93;;;23.50;99.90;;;;;;5029284;28;20550;-55
2021/08/15 01:06:13;;;;;;;15.90;9.60;;;23.50;99.90;;;;;;5031251;28;20481;-56
2021/08/15 01:08:40;;;;;;;16.80;9.60;;;23.50;99.90;;;;;;5029245;28;20491;-54
2021/08/15 01:11:09;;;;;;;11.53;9.63;;;23.50;99.90;;;;;;5030672;28;20448;-56
2021/08/15 01:13:37;;;;;;;12.63;9.20;;;23.50;99.90;;;;;;5031061;28;20476;-56
2021/08/15 01:16:07;;;;;;;15.80;10.13;;;23.50;99.90;;;;;;5030873;28;20452;-56
2021/08/15 01:18:36;;;;;;;19.07;11.43;;;23.40;99.90;;;;;;5027684;28;20456;-56
2021/08/15 01:21:05;;;;;;;15.97;10.50;;;23.40;99.90;;;;;;5031000;28;20510;-56
2021/08/15 01:23:35;;;;;;;19.60;11.20;;;23.30;99.90;;;;;;5030393;28;20476;-56
2021/08/15 01:26:02;;;;;;;16.87;10.87;;;23.20;99.90;;;;;;5030269;28;20871;-56
2021/08/15 01:28:31;;;;;;;13.30;10.07;;;23.30;99.90;;;;;;5030980;28;20455;-57
2021/08/15 01:30:58;;;;;;;15.87;11.10;;;23.30;99.90;;;;;;5030779;28;20448;-55
2021/08/15 01:33:26;;;;;;;16.77;11.90;;;23.30;99.90;;;;;;5030514;28;20473;-55
2021/08/15 01:35:54;;;;;;;16.97;11.60;;;23.10;99.90;;;;;;5030944;28;20444;-54
2021/08/15 01:38:23;;;;;;;16.73;11.53;;;23.00;99.90;;;;;;5030468;28;21011;-54
2021/08/15 01:40:50;;;;;;;22.60;11.60;;;23.00;99.90;;;;;;5030989;28;20453;-57
2021/08/15 01:43:17;;;;;;;20.90;11.50;;;23.00;99.90;;;;;;5030302;28;20526;-54
2021/08/15 01:45:46;;;;;;;18.37;11.67;;;22.90;99.90;;;;;;5030323;28;20480;-57
2021/08/15 01:48:13;;;;;;;16.20;10.40;;;22.90;99.90;;;;;;5031110;28;20958;-56
2021/08/15 01:50:41;;;;;;;21.73;10.90;;;22.90;99.90;;;;;;5034629;28;20456;-55
2021/08/15 01:53:09;;;;;;;15.20;10.40;;;22.90;99.90;;;;;;5033364;28;20448;-55
2021/08/15 01:55:37;;;;;;;16.10;10.93;;;22.90;99.90;;;;;;5034215;28;20444;-55
2021/08/15 01:58:04;;;;;;;24.73;11.50;;;22.70;99.90;;;;;;5034032;28;20475;-55
2021/08/15 02:00:31;;;;;;;15.63;11.00;;;22.70;99.90;;;;;;5034105;28;20535;-56
2021/08/15 02:02:59;;;;;;;14.90;10.83;;;22.80;99.90;;;;;;5033226;28;20978;-55
2021/08/15 02:05:27;;;;;;;18.57;12.77;;;22.80;99.90;;;;;;5034500;28;20480;-56
2021/08/15 02:07:55;;;;;;;20.53;11.97;;;22.80;99.90;;;;;;5033838;28;20662;-55
2021/08/15 02:10:24;;;;;;;12.70;9.80;;;22.70;99.90;;;;;;5034231;28;20543;-55
2021/08/15 02:12:52;;;;;;;22.47;11.77;;;22.70;99.90;;;;;;5032565;28;20970;-56
2021/08/15 02:15:19;;;;;;;16.77;10.73;;;22.60;99.90;;;;;;5034192;28;20449;-57
2021/08/15 02:17:46;;;;;;;20.53;10.97;;;22.60;99.90;;;;;;5033654;28;20448;-55
2021/08/15 02:20:16;;;;;;;14.07;10.53;;;22.60;99.90;;;;;;5033678;28;20901;-56
2021/08/15 02:22:44;;;;;;;19.27;10.80;;;22.60;99.90;;;;;;5033558;28;20452;-55
2021/08/15 02:25:12;;;;;;;16.17;10.60;;;22.60;99.90;;;;;;5033677;28;20485;-57
2021/08/15 02:27:41;;;;;;;16.13;9.80;;;22.50;99.90;;;;;;5033669;28;20502;-55
2021/08/15 02:30:11;;;;;;;15.40;10.17;;;22.50;99.90;;;;;;5033686;28;20452;-57
2021/08/15 02:32:38;;;;;;;21.17;10.57;;;22.50;99.90;;;;;;5032538;28;20453;-56
2021/08/15 02:35:07;;;;;;;17.00;10.33;;;22.50;99.90;;;;;;5024703;28;20491;-55
2021/08/15 02:37:37;;;;;;;17.33;11.10;;;22.50;99.90;;;;;;5033388;28;20460;-56
2021/08/15 02:40:06;;;;;;;17.73;10.17;;;22.50;99.90;;;;;;5033450;28;20459;-56
2021/08/15 02:42:35;;;;;;;13.00;10.40;;;22.50;99.90;;;;;;5031094;28;20453;-55
2021/08/15 02:45:02;;;;;;;13.90;9.20;;;22.40;99.90;;;;;;5032991;28;20481;-55
2021/08/15 02:47:29;;;;;;;13.70;9.23;;;22.40;99.90;;;;;;5033113;28;20459;-56
2021/08/15 02:49:56;;;;;;;13.30;9.50;;;22.40;99.90;;;;;;5033669;28;20456;-56
2021/08/15 02:52:23;;;;;;;14.80;9.30;;;22.40;99.90;;;;;;5032344;28;20486;-56
2021/08/15 02:54:52;;;;;;;12.60;9.47;;;22.40;99.90;;;;;;5032861;28;20484;-54
2021/08/15 02:57:19;;;;;;;15.20;9.83;;;22.40;99.90;;;;;;5033118;28;20830;-55
2021/08/15 02:59:46;;;;;;;13.10;8.93;;;22.40;99.90;;;;;;5032649;28;20468;-56
2021/08/15 03:02:16;;;;;;;17.83;9.47;;;22.40;99.90;;;;;;5033063;28;20452;-56
2021/08/15 03:04:43;;;;;;;18.30;9.97;;;22.40;99.90;;;;;;5032987;28;20469;-55
2021/08/15 03:07:10;;;;;;;15.60;10.10;;;22.40;99.90;;;;;;5032614;28;20548;-56
2021/08/15 03:09:38;;;;;;;18.37;10.60;;;22.30;99.90;;;;;;5028365;28;20506;-54
2021/08/15 03:12:07;;;;;;;13.20;9.40;;;22.30;99.90;;;;;;5032466;28;20475;-56
2021/08/15 03:14:34;;;;;;;18.20;10.20;;;22.30;99.90;;;;;;5032710;28;20611;-54
2021/08/15 03:17:01;;;;;;;16.00;9.60;;;22.30;99.90;;;;;;5032815;28;20499;-55
2021/08/15 03:19:28;;;;;;;17.47;10.00;;;22.30;99.90;;;;;;5032842;28;20456;-55
2021/08/15 03:21:55;;;;;;;14.10;9.27;;;22.30;99.90;;;;;;5032346;28;20456;-55
2021/08/15 03:24:22;;;;;;;10.30;8.60;;;22.30;99.90;;;;;;5032705;28;21028;-56
2021/08/15 03:26:49;;;;;;;18.07;10.10;;;22.30;99.90;;;;;;5031971;28;20460;-56
2021/08/15 03:29:18;;;;;;;13.10;9.10;;;22.30;99.90;;;;;;5032205;28;20515;-54
2021/08/15 03:31:47;;;;;;;16.63;10.27;;;22.30;99.90;;;;;;5027429;28;20510;-55
2021/08/15 03:34:18;;;;;;;12.40;9.87;;;22.30;99.90;;;;;;5032176;28;20526;-55
2021/08/15 03:36:46;;;;;;;18.53;10.13;;;22.20;99.90;;;;;;5030155;28;20576;-54
2021/08/15 03:39:13;;;;;;;15.77;9.87;;;22.10;99.90;;;;;;5032616;28;20456;-56
2021/08/15 03:41:41;;;;;;;15.80;9.23;;;22.00;99.90;;;;;;5032297;28;20459;-55
2021/08/15 03:44:08;;;;;;;17.97;9.43;;;22.00;99.90;;;;;;5030943;28;20487;-55
2021/08/15 03:46:37;;;;;;;15.03;10.57;;;22.00;99.90;;;;;;5028947;28;20453;-56
2021/08/15 03:49:04;;;;;;;13.20;9.97;;;22.00;99.90;;;;;;5031645;28;20448;-56
2021/08/15 03:51:31;;;;;;;27.50;12.17;;;22.00;99.90;;;;;;5031902;28;20448;-57
2021/08/15 03:53:58;;;;;;;13.10;11.13;;;21.90;99.90;;;;;;5031826;28;20472;-55
2021/08/15 03:56:25;;;;;;;19.33;11.57;;;21.90;99.90;;;;;;5026427;28;20484;-55
2021/08/15 03:58:52;;;;;;;22.40;11.90;;;21.80;99.90;;;;;;5031782;28;20457;-55
2021/08/15 04:01:19;;;;;;;14.37;11.03;;;21.70;99.90;;;;;;5031532;28;20839;-56
2021/08/15 04:03:48;;;;;;;16.00;13.17;;;21.70;99.90;;;;;;5031698;28;20526;-55
2021/08/15 04:06:21;;;;;;;16.20;11.37;;;21.70;99.90;;;;;;5032017;28;20526;-55
2021/08/15 04:08:49;;;;;;;22.23;12.33;;;21.70;99.90;;;;;;5032047;28;20460;-56
2021/08/15 04:11:16;;;;;;;16.97;11.30;;;21.70;99.90;;;;;;5031047;28;20506;-57
2021/08/15 04:13:43;;;;;;;14.90;10.60;;;21.50;99.90;;;;;;5031502;28;20476;-56
2021/08/15 04:16:11;;;;;;;17.27;10.40;;;21.50;99.90;;;;;;5031677;28;20480;-55
2021/08/15 04:18:38;;;;;;;19.43;11.23;;;21.60;99.90;;;;;;5031407;28;20445;-54
2021/08/15 04:21:06;;;;;;;16.17;11.43;;;21.50;99.90;;;;;;5031715;28;20522;-55
2021/08/15 04:23:33;;;;;;;17.80;11.57;;;21.30;99.90;;;;;;5030942;28;20476;-55
2021/08/15 04:26:00;;;;;;;18.07;11.17;;;21.30;99.90;;;;;;5024948;28;20507;-55
2021/08/15 04:28:28;;;;;;;15.00;10.17;;;21.30;99.90;;;;;;5031637;28;20463;-55
2021/08/15 04:30:55;;;;;;;15.80;10.53;;;21.40;99.90;;;;;;5031070;28;20772;-55
2021/08/15 04:33:24;;;;;;;16.47;11.03;;;21.40;99.90;;;;;;5031527;28;20477;-56
2021/08/15 04:35:52;;;;;;;13.90;11.10;;;21.50;99.90;;;;;;5031120;28;21028;-56
2021/08/15 04:38:21;;;;;;;19.80;11.43;;;21.60;99.90;;;;;;5031313;28;21022;-54
2021/08/15 04:40:50;;;;;;;17.47;10.60;;;21.70;99.90;;;;;;5030715;28;20453;-56
2021/08/15 04:43:17;;;;;;;15.53;10.40;;;21.70;99.90;;;;;;5030793;28;20472;-55
2021/08/15 04:45:46;;;;;;;17.27;10.00;;;21.80;99.90;;;;;;5072264;22;20569;-55
2021/08/15 04:48:14;;;;;;;16.73;10.60;;;21.90;99.90;;;;;;5050911;28;20444;-56
2021/08/15 04:50:41;;;;;;;16.63;10.57;;;22.10;99.90;;;;;;5050514;28;20448;-55
2021/08/15 04:53:08;;;;;;;16.80;11.03;;;22.30;99.90;;;;;;5050935;28;20513;-56
2021/08/15 04:55:36;;;;;;;19.50;10.70;;;22.50;99.90;;;;;;5050397;28;20494;-55
2021/08/15 04:58:04;;;;;;;14.30;10.20;;;22.80;99.90;;;;;;5050749;28;20448;-56
2021/08/15 05:00:31;;;;;;;16.33;10.40;;;23.00;99.90;;;;;;5050685;28;20455;-55
2021/08/15 05:02:58;;;;;;;13.93;9.73;;;23.10;99.90;;;;;;5050307;28;20517;-55
2021/08/15 05:05:25;;;;;;;15.13;10.30;;;23.10;99.90;;;;;;5050160;28;20472;-56
2021/08/15 05:07:52;;;;;;;19.23;11.80;;;23.10;99.90;;;;;;5050848;28;20832;-55
2021/08/15 05:10:19;;;;;;;19.90;10.40;;;22.80;99.90;;;;;;5050289;28;20456;-56
2021/08/15 05:12:48;;;;;;;18.73;10.63;;;22.70;99.90;;;;;;5050491;28;20451;-56
2021/08/15 05:15:15;;;;;;;13.40;10.20;;;22.80;99.90;;;;;;5045865;28;20479;-56
2021/08/15 05:17:42;;;;;;;15.63;10.40;;;22.90;99.90;;;;;;5050385;28;20485;-56
2021/08/15 05:20:10;;;;;;;13.33;9.43;;;23.20;99.90;;;;;;5050461;28;20459;-56
2021/08/15 05:22:37;;;;;;;12.50;9.80;;;23.70;99.90;;;;;;5050769;28;20513;-56
2021/08/15 05:25:06;;;;;;;19.47;10.20;;;24.30;99.90;;;;;;5053539;28;20476;-56
2021/08/15 05:27:33;;;;;;;24.13;10.53;;;24.90;99.90;;;;;;5052733;28;20470;-56
2021/08/15 05:30:01;;;;;;;12.00;9.20;;;25.40;99.90;;;;;;5054005;28;20984;-56
2021/08/15 05:32:28;;;;;;;17.20;10.10;;;25.80;99.90;;;;;;5054019;28;20451;-56
2021/08/15 05:34:55;;;;;;;18.23;9.77;;;26.30;99.90;;;;;;5054619;28;20474;-56
2021/08/15 05:37:23;;;;;;;14.10;10.10;;;26.80;99.90;;;;;;5054252;28;20549;-56
2021/08/15 05:39:50;;;;;;;11.47;9.27;;;27.00;99.90;;;;;;5053652;28;20462;-56
2021/08/15 05:42:17;;;;;;;11.73;8.73;;;27.30;99.90;;;;;;5047077;28;20439;-56
2021/08/15 05:44:44;;;;;;;17.47;9.83;;;27.80;99.90;;;;;;5054054;28;20929;-56
2021/08/15 05:47:12;;;;;;;15.43;9.90;;;28.20;99.90;;;;;;5054503;28;20454;-56
2021/08/15 05:49:40;;;;;;;15.87;9.33;;;28.60;99.90;;;;;;5053941;28;20501;-56
2021/08/15 05:52:07;;;;;;;13.97;9.27;;;28.70;99.90;;;;;;5053424;28;20855;-56
2021/08/15 05:54:34;;;;;;;13.90;8.53;;;29.10;99.90;;;;;;5053623;28;20487;-56
2021/08/15 05:57:01;;;;;;;11.60;8.40;;;29.30;99.90;;;;;;5052427;28;20475;-56
2021/08/15 05:59:28;;;;;;;14.53;8.73;;;29.40;99.90;;;;;;5052895;28;20448;-57
2021/08/15 06:01:56;;;;;;;12.30;8.60;;;29.50;99.90;;;;;;5053749;28;20443;-57
2021/08/15 06:04:24;;;;;;;10.33;8.60;;;29.60;99.90;;;;;;5053957;28;20463;-56
2021/08/15 06:06:51;;;;;;;12.97;8.90;;;29.70;99.90;;;;;;5052910;28;20455;-56
2021/08/15 06:09:18;;;;;;;12.23;9.20;;;29.80;99.90;;;;;;5053212;28;20846;-57
2021/08/15 06:11:46;;;;;;;15.80;8.70;;;30.10;99.90;;;;;;5053873;28;20471;-57
2021/08/15 06:14:14;;;;;;;11.77;8.10;;;30.00;99.90;;;;;;5053235;28;20483;-56
2021/08/15 06:16:41;;;;;;;16.10;9.33;;;30.20;99.90;;;;;;5053728;28;20566;-55
2021/08/15 06:19:08;;;;;;;13.73;8.73;;;30.20;99.90;;;;;;5053295;28;20517;-54
2021/08/15 06:21:36;;;;;;;9.10;7.57;;;30.40;99.90;;;;;;5053655;28;20468;-54
2021/08/15 06:24:04;;;;;;;13.07;8.23;;;30.60;99.90;;;;;;5052363;28;20472;-54
2021/08/15 06:26:31;;;;;;;12.73;8.17;;;30.40;99.90;;;;;;5053335;28;20956;-54
2021/08/15 06:28:58;;;;;;;24.50;9.33;;;30.90;99.90;;;;;;5052324;28;20452;-54
2021/08/15 06:31:25;;;;;;;13.20;7.63;;;31.10;99.90;;;;;;5051394;28;20530;-53
2021/08/15 06:33:53;;;;;;;9.10;7.70;;;31.20;99.90;;;;;;5052000;28;20513;-54
2021/08/15 06:36:20;;;;;;;11.70;8.80;;;31.30;99.90;;;;;;5051911;28;20571;-54
2021/08/15 06:38:48;;;;;;;12.83;8.33;;;31.40;99.90;;;;;;5052656;28;20455;-54
2021/08/15 06:41:16;;;;;;;13.13;8.07;;;31.50;99.90;;;;;;5052084;28;20456;-54
2021/08/15 06:43:43;;;;;;;11.53;8.37;;;31.40;99.90;;;;;;5045970;28;20444;-54
2021/08/15 06:46:10;;;;;;;11.73;8.40;;;31.60;99.90;;;;;;5052767;28;20936;-54
2021/08/15 06:48:37;;;;;;;13.13;8.10;;;31.40;99.90;;;;;;5052345;28;20459;-55
2021/08/15 06:51:04;;;;;;;15.37;9.07;;;31.80;99.90;;;;;;5051833;28;20954;-54
2021/08/15 06:53:35;;;;;;;17.33;8.40;;;32.00;99.90;;;;;;5051411;28;20452;-54
2021/08/15 06:56:05;;;;;;;9.67;8.10;;;32.00;99.90;;;;;;5048862;28;20509;-54
2021/08/15 06:58:33;;;;;;;12.40;8.77;;;32.30;99.90;;;;;;5053368;28;20454;-54
2021/08/15 07:01:00;;;;;;;11.83;8.80;;;31.80;99.90;;;;;;5053255;28;20505;-55
2021/08/15 07:03:27;;;;;;;11.80;8.60;;;32.00;99.90;;;;;;5052315;28;20823;-55
2021/08/15 07:05:55;;;;;;;10.67;8.83;;;32.20;99.90;;;;;;5051889;28;20475;-55
2021/08/15 07:08:22;;;;;;;11.27;7.90;;;32.70;99.90;;;;;;5051543;28;20462;-57
2021/08/15 07:10:49;;;;;;;12.30;7.57;;;32.60;99.90;;;;;;5051786;28;20972;-55
2021/08/15 07:13:22;;;;;;;11.30;8.40;;;32.80;99.90;;;;;;5052849;28;20473;-55
2021/08/15 07:15:49;;;;;;;13.00;8.50;;;33.40;99.90;;;;;;5047512;28;20472;-55
2021/08/15 07:18:17;;;;;;;15.10;9.00;;;33.40;99.90;;;;;;5049422;28;20509;-55
2021/08/15 07:20:44;;;;;;;13.20;8.40;;;33.40;99.90;;;;;;5041724;28;20528;-56
2021/08/15 07:23:11;;;;;;;9.90;8.27;;;33.50;99.90;;;;;;5050870;28;20574;-55
2021/08/15 07:25:38;;;;;;;15.10;8.67;;;33.30;99.90;;;;;;5050063;28;20998;-55
2021/08/15 07:28:05;;;;;;;11.00;8.17;;;33.30;99.90;;;;;;5051060;28;20459;-56
2021/08/15 07:30:35;;;;;;;16.67;8.43;;;33.50;99.90;;;;;;5051341;28;20965;-55
2021/08/15 07:33:05;;;;;;;18.70;8.97;;;33.40;99.90;;;;;;5051391;28;20458;-55
2021/08/15 07:35:34;;;;;;;10.30;8.73;;;33.50;99.90;;;;;;5051395;28;20472;-55
2021/08/15 07:38:01;;;;;;;11.00;8.10;;;33.60;99.90;;;;;;5051527;28;21011;-55
2021/08/15 07:40:29;;;;;;;15.90;9.50;;;33.60;99.90;;;;;;5051487;28;20451;-55
2021/08/15 07:42:56;;;;;;;11.33;7.50;;;33.90;99.90;;;;;;5051868;28;20456;-55
2021/08/15 07:45:25;;;;;;;14.70;7.97;;;33.60;99.90;;;;;;5044186;28;20882;-54
2021/08/15 07:47:54;;;;;;;15.93;9.70;;;34.00;99.90;;;;;;5042920;28;20960;-55
2021/08/15 07:50:21;;;;;;;17.87;8.53;;;34.40;99.90;;;;;;5052022;28;20582;-54
2021/08/15 07:52:49;;;;;;;15.37;8.50;;;34.60;99.90;;;;;;5050870;28;20459;-55
2021/08/15 07:55:16;;;;;;;9.80;7.93;;;34.80;99.90;;;;;;5043242;28;20467;-55
2021/08/15 07:57:43;;;;;;;15.10;9.40;;;34.70;99.90;;;;;;5051109;28;20483;-55
2021/08/15 08:00:10;;;;;;;10.57;8.17;;;34.60;99.90;;;;;;5051654;28;20510;-54
2021/08/15 08:02:38;;;;;;;12.60;7.90;;;34.50;99.90;;;;;;5050761;28;20456;-54
2021/08/15 08:05:07;;;;;;;11.37;8.83;;;34.70;99.90;;;;;;5051431;28;20534;-55
2021/08/15 08:07:34;;;;;;;12.30;8.37;;;34.40;99.90;;;;;;5051713;28;20962;-55
2021/08/15 08:10:01;;;;;;;12.70;8.60;;;34.50;99.90;;;;;;5050230;28;20450;-55
2021/08/15 08:12:28;;;;;;;11.43;8.33;;;34.70;99.90;;;;;;5051342;28;20444;-55
2021/08/15 08:14:55;;;;;;;16.30;9.20;;;34.80;99.90;;;;;;5050589;28;20471;-55
2021/08/15 08:17:22;;;;;;;15.07;8.27;;;34.70;99.90;;;;;;5048383;28;21012;-54
2021/08/15 08:19:49;;;;;;;10.37;8.80;;;34.30;99.90;;;;;;5045711;28;20477;-55
2021/08/15 08:22:21;;;;;;;13.93;8.90;;;35.10;99.90;;;;;;5046569;28;20444;-54
2021/08/15 08:24:48;;;;;;;12.30;9.53;;;33.70;99.90;;;;;;5042789;28;21051;-55
2021/08/15 08:27:17;;;;;;;14.90;8.53;;;34.20;99.90;;;;;;5048297;28;20468;-54
2021/08/15 08:29:45;;;;;;;12.90;9.13;;;34.20;99.90;;;;;;5046041;28;20536;-55
2021/08/15 08:32:12;;;;;;;14.90;9.00;;;34.60;99.90;;;;;;5050253;28;21070;-54
2021/08/15 08:34:39;;;;;;;9.67;7.80;;;35.10;99.90;;;;;;5044648;28;20912;-55
2021/08/15 08:37:07;;;;;;;17.73;9.40;;;34.70;99.90;;;;;;5048188;28;20483;-55
2021/08/15 08:39:35;;;;;;;11.60;8.87;;;35.00;99.90;;;;;;5042621;28;20453;-55
2021/08/15 08:42:05;;;;;;;12.03;8.20;;;35.10;99.90;;;;;;5048774;28;20455;-56
2021/08/15 08:44:34;;;;;;;11.83;8.17;;;35.10;99.00;;;;;;5049928;28;20863;-55
2021/08/15 08:47:03;;;;;;;9.57;7.57;;;35.30;99.90;;;;;;5051211;28;20455;-55
2021/08/15 08:49:30;;;;;;;16.10;8.77;;;35.50;99.30;;;;;;5050233;28;20829;-55
2021/08/15 08:51:57;;;;;;;11.50;8.60;;;35.30;98.30;;;;;;5049710;28;20451;-55
2021/08/15 08:54:25;;;;;;;13.23;9.00;;;35.10;99.30;;;;;;5051170;28;20463;-55
2021/08/15 08:56:54;;;;;;;13.97;8.33;;;35.20;99.90;;;;;;5050712;28;20540;-55
2021/08/15 08:59:21;;;;;;;14.17;8.63;;;35.60;97.80;;;;;;5054675;28;20458;-54
2021/08/15 09:01:49;;;;;;;11.53;8.30;;;35.50;99.90;;;;;;5054305;28;20835;-55
2021/08/15 09:04:16;;;;;;;12.83;8.43;;;35.90;99.90;;;;;;5054720;28;20482;-56
2021/08/15 09:06:43;;;;;;;9.83;7.90;;;36.10;99.90;;;;;;5052437;28;20486;-55
2021/08/15 09:09:12;;;;;;;17.23;9.57;;;35.40;99.40;;;;;;5054778;28;20451;-55
2021/08/15 09:11:40;;;;;;;11.83;8.37;;;35.10;99.90;;;;;;5054924;28;20459;-55
2021/08/15 09:14:10;;;;;;;13.93;8.67;;;34.40;99.90;;;;;;5054171;28;20471;-55
2021/08/15 09:16:55;;;;;;;13.23;9.03;;;35.00;99.90;;;;;;5054753;28;20547;-55
2021/08/15 09:19:27;;;;;;;13.13;8.60;;;35.00;99.90;;;;;;5054620;28;20440;-55
2021/08/15 09:22:09;;;;;;;17.43;9.00;;;35.10;99.90;;;;;;5052266;28;20463;-55
2021/08/15 09:24:48;;;;;;;14.93;9.70;;;35.40;99.90;;;;;;5054293;28;20886;-55
2021/08/15 09:27:22;;;;;;;10.63;9.40;;;35.30;99.90;;;;;;5049003;28;20870;-55
2021/08/15 09:30:15;;;;;;;12.70;8.13;;;35.10;99.90;;;;;;5053959;28;20910;-55
2021/08/15 09:32:54;;;;;;;13.17;8.70;;;34.80;99.90;;;;;;5054073;28;20456;-55
2021/08/15 09:35:27;;;;;;;11.20;8.90;;;35.00;99.90;;;;;;5049332;28;20471;-55
2021/08/15 09:38:04;;;;;;;13.57;8.30;;;34.60;99.90;;;;;;5042680;28;20537;-55
2021/08/15 09:40:38;;;;;;;11.33;8.67;;;34.40;99.90;;;;;;5054271;28;20505;-55
2021/08/15 09:43:07;;;;;;;12.40;8.67;;;34.90;99.90;;;;;;5034362;28;20445;-55
2021/08/15 09:45:42;;;;;;;10.63;8.30;;;34.80;99.90;;;;;;5050697;28;20553;-55
2021/08/15 09:48:27;;;;;;;12.87;8.43;;;34.20;99.90;;;;;;5054524;28;20439;-55
2021/08/15 09:51:06;;;;;;;13.13;8.37;;;34.60;99.90;;;;;;5053975;28;20450;-55
2021/08/15 09:53:33;;;;;;;15.67;8.57;;;34.70;99.90;;;;;;5053308;28;20816;-55
2021/08/15 09:56:01;;;;;;;11.13;8.63;;;34.70;99.90;;;;;;5053790;28;20508;-55
2021/08/15 09:58:28;;;;;;;11.10;8.40;;;34.90;99.90;;;;;;5053332;28;20475;-55
2021/08/15 10:00:57;;;;;;;14.00;9.47;;;34.70;99.90;;;;;;5052846;28;20475;-55
2021/08/15 10:03:25;;;;;;;12.90;9.13;;;35.10;99.10;;;;;;5052238;28;20541;-55
2021/08/15 10:05:54;;;;;;;14.93;8.90;;;34.50;99.90;;;;;;5052737;28;20471;-55
2021/08/15 10:08:22;;;;;;;13.50;8.80;;;34.60;99.90;;;;;;5052819;28;20490;-55
2021/08/15 10:10:49;;;;;;;13.60;8.97;;;34.40;99.90;;;;;;5048544;28;20529;-55
2021/08/15 10:13:17;;;;;;;11.07;9.00;;;34.50;99.90;;;;;;5051698;28;20514;-55
2021/08/15 10:15:56;;;;;;;12.70;8.93;;;34.40;99.90;;;;;;5053395;28;20472;-55
2021/08/15 10:18:28;;;;;;;14.80;9.50;;;33.70;99.90;;;;;;5052175;28;20579;-55
2021/08/15 10:21:11;;;;;;;12.50;8.80;;;33.40;99.90;;;;;;5047679;28;20472;-55
2021/08/15 10:23:41;;;;;;;13.90;8.87;;;33.40;99.90;;;;;;5052453;28;20495;-55
2021/08/15 10:26:43;;;;;;;13.70;9.80;;;34.20;99.90;;;;;;5053456;28;20562;-55
2021/08/15 10:29:37;;;;;;;17.10;12.53;;;34.20;99.90;;;;;;5052628;28;20459;-54
2021/08/15 10:32:18;;;;;;;18.80;12.97;;;33.70;99.90;;;;;;5044180;28;20853;-55
2021/08/15 10:35:17;;;;;;;15.00;13.33;;;33.70;99.90;;;;;;5048397;28;20916;-55
2021/08/15 10:37:46;;;;;;;16.43;12.97;;;33.90;99.90;;;;;;5048569;28;20487;-55
2021/08/15 10:40:55;;;;;;;16.50;13.67;;;34.00;99.90;;;;;;5046158;28;20911;-55
2021/08/15 10:43:58;;;;;;;16.77;13.50;;;33.60;99.90;;;;;;5044158;28;20467;-54
2021/08/15 10:46:25;;;;;;;15.90;13.53;;;32.50;99.90;;;;;;5055221;22;20596;-63
2021/08/15 10:48:53;;;;;;;14.00;12.50;;;32.60;99.90;;;;;;5028336;28;20932;-63
2021/08/15 10:51:43;;;;;;;15.07;12.90;;;33.00;99.90;;;;;;5029816;28;20464;-64
2021/08/15 10:54:34;;;;;;;17.80;12.90;;;33.30;99.90;;;;;;5027385;28;20503;-64
2021/08/15 10:57:03;;;;;;;18.33;13.13;;;32.90;99.90;;;;;;5010584;28;20811;-63
2021/08/15 10:59:31;;;;;;;19.30;12.77;;;33.20;99.90;;;;;;5011420;28;20465;-63
2021/08/15 11:02:09;;;;;;;20.70;12.80;;;32.90;99.90;;;;;;5006445;28;20468;-64
2021/08/15 11:04:37;;;;;;;19.30;11.93;;;33.00;99.90;;;;;;5004949;28;20524;-64
2021/08/15 11:07:06;;;;;;;12.20;10.80;;;33.00;99.90;;;;;;5012108;28;20534;-64
2021/08/15 11:09:54;;;;;;;19.60;11.80;;;32.80;99.90;;;;;;5008487;28;20472;-64
2021/08/15 11:12:22;;;;;;;13.47;10.50;;;32.90;99.90;;;;;;5009308;28;20540;-64
2021/08/15 11:15:08;;;;;;;16.50;10.67;;;32.30;99.90;;;;;;5013167;28;20520;-64
2021/08/15 11:17:36;;;;;;;15.10;11.73;;;32.00;99.90;;;;;;5010550;28;20489;-63
2021/08/15 11:20:32;;;;;;;20.90;11.73;;;32.40;99.90;;;;;;5008279;28;20542;-64
2021/08/15 11:23:10;;;;;;;18.00;11.13;;;32.60;99.90;;;;;;5008415;28;20465;-64
2021/08/15 11:25:37;;;;;;;18.70;10.90;;;32.60;99.90;;;;;;5010633;28;20576;-64
2021/08/15 11:28:04;;;;;;;13.50;10.90;;;33.00;99.90;;;;;;5012617;28;20952;-63
2021/08/15 11:30:31;;;;;;;15.03;12.10;;;32.30;99.90;;;;;;5012107;28;21333;-63
2021/08/15 11:33:00;;;;;;;16.00;10.90;;;31.70;99.90;;;;;;5010473;28;20477;-64
2021/08/15 11:35:32;;;;;;;14.40;10.80;;;31.60;99.90;;;;;;5010481;28;20496;-63
2021/08/15 11:37:59;;;;;;;17.23;10.80;;;31.30;99.90;;;;;;5010858;28;20492;-64
2021/08/15 11:40:29;;;;;;;17.93;9.40;;;31.30;99.90;;;;;;5012041;28;20544;-64
2021/08/15 11:42:59;;;;;;;16.93;10.03;;;31.60;99.90;;;;;;5004692;28;21006;-64
2021/08/15 11:45:31;;;;;;;16.20;8.90;;;32.00;99.90;;;;;;5011751;28;20493;-63
2021/08/15 11:48:05;;;;;;;14.20;9.50;;;32.20;99.90;;;;;;5009281;28;20473;-63
2021/08/15 11:50:34;;;;;;;15.90;10.13;;;32.00;99.90;;;;;;5006561;28;20967;-63
2021/08/15 11:53:01;;;;;;;12.97;9.20;;;32.00;99.90;;;;;;5005197;28;20538;-63
2021/08/15 11:55:31;;;;;;;16.93;10.00;;;31.70;99.90;;;;;;5011265;28;20473;-63
2021/08/15 11:57:59;;;;;;;17.27;10.03;;;31.60;99.90;;;;;;5010849;28;20512;-63
2021/08/15 12:00:29;;;;;;;19.23;9.80;;;31.40;99.90;;;;;;5011954;28;20527;-63
2021/08/15 12:03:07;;;;;;;16.77;10.20;;;31.00;99.90;;;;;;5010908;28;20494;-63
2021/08/15 12:05:37;;;;;;;16.80;10.47;;;30.90;99.90;;;;;;5012098;28;21002;-63
2021/08/15 12:08:07;;;;;;;14.63;9.67;;;30.80;99.90;;;;;;5012666;28;20445;-63
2021/08/15 12:10:40;;;;;;;17.63;10.33;;;30.90;99.90;;;;;;5011531;28;20461;-63
2021/08/15 12:13:15;;;;;;;14.10;10.40;;;30.60;99.90;;;;;;5009979;28;20498;-62
2021/08/15 12:15:44;;;;;;;18.10;10.80;;;30.10;99.90;;;;;;5010205;28;20477;-63
2021/08/15 12:18:30;;;;;;;16.00;10.83;;;29.70;99.90;;;;;;5010939;28;20481;-62
2021/08/15 12:20:58;;;;;;;12.63;10.50;;;29.50;99.90;;;;;;5005420;28;20461;-62
2021/08/15 12:23:25;;;;;;;17.03;10.00;;;29.10;99.90;;;;;;5019594;28;20456;-63
2021/08/15 12:26:05;;;;;;;14.50;10.80;;;28.80;99.90;;;;;;5029169;28;20465;-63
2021/08/15 12:28:33;;;;;;;17.13;10.63;;;28.80;99.90;;;;;;5005920;28;20457;-60
2021/08/15 12:31:21;;;;;;;15.90;11.00;;;28.80;99.90;;;;;;5011506;28;20962;-63
2021/08/15 12:33:49;;;;;;;15.00;10.40;;;28.80;99.90;;;;;;5005279;28;20473;-63
2021/08/15 12:36:18;;;;;;;21.30;10.40;;;28.70;99.90;;;;;;5006715;28;20995;-63
2021/08/15 12:38:45;;;;;;;16.23;10.63;;;28.70;99.90;;;;;;4992192;28;20515;-63
2021/08/15 12:41:29;;;;;;;17.07;10.70;;;28.70;99.90;;;;;;4999442;28;20492;-62
2021/08/15 12:44:08;;;;;;;15.10;10.10;;;28.70;99.90;;;;;;5010530;28;20457;-63
2021/08/15 12:46:35;;;;;;;16.00;10.73;;;28.90;99.90;;;;;;5010991;28;20909;-63